Time;durP1;ratioP1;P1;durP2;ratioP2;P2;SDS_P1;SDS_P2;PMS_P1;PMS_P2;Temp;Humidity;BMP_temperature;BMP_pressure;BME280_temperature;BME280_humidity;BME280_pressure;Samples;Min_cycle;Max_cycle;Signal;HPM_P1;HPM_P2
2023/04/23 00:01:38;;;;;;;12.30;4.13;;;;;;;;;;5056731;28;20033;-82
2023/04/23 00:04:05;;;;;;;5.40;3.72;;;;;;;;;;5022489;28;20029;-82
2023/04/23 00:06:31;;;;;;;5.13;3.42;;;;;;;;;;5038697;28;20107;-82
2023/04/23 00:08:56;;;;;;;6.18;4.55;;;;;;;;;;5022510;28;20158;-82
2023/04/23 00:11:22;;;;;;;12.73;5.28;;;;;;;;;;5027612;28;20466;-82
2023/04/23 00:13:48;;;;;;;1.92;1.48;;;;;;;;;;5056569;28;20114;-82
2023/04/23 00:16:14;;;;;;;6.40;3.13;;;;;;;;;;5059747;28;20025;-81
2023/04/23 00:18:40;;;;;;;9.27;3.97;;;;;;;;;;5048445;28;20045;-82
2023/04/23 00:21:07;;;;;;;8.02;3.60;;;;;;;;;;5038312;28;20098;-82
2023/04/23 00:23:32;;;;;;;4.80;2.65;;;;;;;;;;5056122;28;20029;-82
2023/04/23 00:25:58;;;;;;;6.72;3.30;;;;;;;;;;5056381;28;20460;-82
2023/04/23 00:28:23;;;;;;;6.35;3.60;;;;;;;;;;5056459;28;20065;-82
2023/04/23 00:30:49;;;;;;;8.02;3.80;;;;;;;;;;5057443;28;20028;-81
2023/04/23 00:33:14;;;;;;;7.80;4.35;;;;;;;;;;5063791;28;20036;-82
2023/04/23 00:35:40;;;;;;;4.90;2.72;;;;;;;;;;5052041;28;20051;-82
2023/04/23 00:38:06;;;;;;;6.03;4.40;;;;;;;;;;5058037;28;20033;-83
2023/04/23 00:40:32;;;;;;;4.13;2.20;;;;;;;;;;5055867;28;20446;-82
2023/04/23 00:42:57;;;;;;;5.88;3.65;;;;;;;;;;5056146;28;20031;-82
2023/04/23 00:45:24;;;;;;;10.15;3.78;;;;;;;;;;5038057;28;20083;-82
2023/04/23 00:47:49;;;;;;;6.38;2.70;;;;;;;;;;5038426;28;20362;-82
2023/04/23 00:50:15;;;;;;;6.60;2.88;;;;;;;;;;5020710;28;20102;-82
2023/04/23 00:52:40;;;;;;;4.28;1.65;;;;;;;;;;5054820;28;20075;-82
2023/04/23 00:55:07;;;;;;;14.10;3.38;;;;;;;;;;5070822;28;20013;-82
2023/04/23 00:57:33;;;;;;;3.05;1.88;;;;;;;;;;5028508;28;20021;-82
2023/04/23 00:59:58;;;;;;;3.58;2.70;;;;;;;;;;5055510;28;20112;-82
2023/04/23 01:02:26;;;;;;;2.15;1.85;;;;;;;;;;5021155;28;20072;-82
2023/04/23 01:04:53;;;;;;;1.63;1.42;;;;;;;;;;5038263;28;20125;-82
2023/04/23 01:07:19;;;;;;;8.18;2.92;;;;;;;;;;5037842;28;20033;-81
2023/04/23 01:09:44;;;;;;;3.85;1.83;;;;;;;;;;5055540;28;20116;-82
2023/04/23 01:12:10;;;;;;;4.40;2.33;;;;;;;;;;5019991;28;20292;-82
2023/04/23 01:14:36;;;;;;;3.95;1.92;;;;;;;;;;5039536;28;20448;-81
2023/04/23 01:17:01;;;;;;;5.20;2.35;;;;;;;;;;5044970;28;20056;-82
2023/04/23 01:19:27;;;;;;;4.20;3.10;;;;;;;;;;5055279;28;20354;-80
2023/04/23 01:21:52;;;;;;;2.47;1.60;;;;;;;;;;5037018;28;20048;-82
2023/04/23 01:24:19;;;;;;;3.25;2.60;;;;;;;;;;5037225;28;20028;-80
2023/04/23 01:26:46;;;;;;;5.35;2.50;;;;;;;;;;5037501;28;20029;-80
2023/04/23 01:29:11;;;;;;;3.72;2.05;;;;;;;;;;5054775;28;20027;-81
2023/04/23 01:31:36;;;;;;;2.42;1.85;;;;;;;;;;5021172;28;20045;-80
2023/04/23 01:34:02;;;;;;;3.03;1.50;;;;;;;;;;5036309;28;20032;-80
2023/04/23 01:36:29;;;;;;;3.85;2.20;;;;;;;;;;5058116;28;20361;-81
2023/04/23 01:38:54;;;;;;;2.53;2.10;;;;;;;;;;5055167;28;20037;-81
2023/04/23 01:41:19;;;;;;;1.58;1.08;;;;;;;;;;5020689;28;20032;-81
2023/04/23 01:43:45;;;;;;;19.95;2.90;;;;;;;;;;5054794;28;20029;-81
2023/04/23 01:46:11;;;;;;;2.50;1.52;;;;;;;;;;5037222;28;20076;-81
2023/04/23 01:48:37;;;;;;;5.55;2.97;;;;;;;;;;5054599;28;20056;-81
2023/04/23 01:51:03;;;;;;;4.15;1.98;;;;;;;;;;5036597;28;20064;-81
2023/04/23 01:53:29;;;;;;;36.25;4.53;;;;;;;;;;5060779;28;20082;-81
2023/04/23 01:55:57;;;;;;;3.08;2.45;;;;;;;;;;5060537;28;20049;-81
2023/04/23 01:58:22;;;;;;;4.50;1.80;;;;;;;;;;5036511;28;20059;-80
2023/04/23 02:00:51;;;;;;;3.28;2.35;;;;;;;;;;5032870;28;20037;-81
2023/04/23 02:03:19;;;;;;;4.13;1.48;;;;;;;;;;5054143;28;20037;-81
2023/04/23 02:05:44;;;;;;;4.90;2.10;;;;;;;;;;5054323;28;20029;-81
2023/04/23 02:08:11;;;;;;;6.25;2.42;;;;;;;;;;5037406;28;20049;-81
2023/04/23 02:10:37;;;;;;;5.75;2.45;;;;;;;;;;5038296;28;20036;-81
2023/04/23 02:13:02;;;;;;;2.58;1.30;;;;;;;;;;5050327;28;20039;-82
2023/04/23 02:15:28;;;;;;;3.50;2.10;;;;;;;;;;5063730;28;20370;-81
2023/04/23 02:17:55;;;;;;;10.05;5.20;;;;;;;;;;5054360;28;20041;-81
2023/04/23 02:20:21;;;;;;;5.85;2.72;;;;;;;;;;5053693;28;20047;-81
2023/04/23 02:22:46;;;;;;;3.22;2.05;;;;;;;;;;5054296;28;20029;-81
2023/04/23 02:25:14;;;;;;;3.08;1.38;;;;;;;;;;5019814;28;20068;-81
2023/04/23 02:27:42;;;;;;;5.45;2.92;;;;;;;;;;5052645;28;20036;-81
2023/04/23 02:30:08;;;;;;;2.53;1.58;;;;;;;;;;5056706;28;20020;-81
2023/04/23 02:32:36;;;;;;;5.88;3.03;;;;;;;;;;5041227;28;20501;-81
2023/04/23 02:35:05;;;;;;;4.65;2.67;;;;;;;;;;5059216;28;20033;-81
2023/04/23 02:37:31;;;;;;;2.55;1.75;;;;;;;;;;5036744;28;20384;-81
2023/04/23 02:39:57;;;;;;;4.35;2.15;;;;;;;;;;5019740;28;20086;-81
2023/04/23 02:42:22;;;;;;;2.85;1.58;;;;;;;;;;5054354;28;20021;-81
2023/04/23 02:44:47;;;;;;;1.67;1.35;;;;;;;;;;5019948;28;20373;-81
2023/04/23 02:47:13;;;;;;;7.00;2.70;;;;;;;;;;5053797;28;20021;-81
2023/04/23 02:49:38;;;;;;;1.67;1.35;;;;;;;;;;5055328;28;20021;-81
2023/04/23 02:52:04;;;;;;;2.63;2.03;;;;;;;;;;5057264;28;20433;-81
2023/04/23 02:54:31;;;;;;;2.78;2.10;;;;;;;;;;5053903;28;20124;-81
2023/04/23 02:56:57;;;;;;;5.95;3.03;;;;;;;;;;5059138;28;20676;-82
2023/04/23 02:59:22;;;;;;;3.03;1.83;;;;;;;;;;5052937;28;20068;-81
2023/04/23 03:01:47;;;;;;;5.75;3.55;;;;;;;;;;5049660;28;20466;-81
2023/04/23 03:04:13;;;;;;;3.47;2.42;;;;;;;;;;5053551;28;20342;-81
2023/04/23 03:06:39;;;;;;;3.28;2.53;;;;;;;;;;5053796;28;20037;-81
2023/04/23 03:09:04;;;;;;;4.88;2.75;;;;;;;;;;5061918;28;20025;-82
2023/04/23 03:11:30;;;;;;;3.38;1.50;;;;;;;;;;5064737;28;20142;-81
2023/04/23 03:13:55;;;;;;;4.05;2.88;;;;;;;;;;5037021;28;20074;-81
2023/04/23 03:16:21;;;;;;;4.50;2.42;;;;;;;;;;5040926;28;20029;-82
2023/04/23 03:18:46;;;;;;;6.38;4.05;;;;;;;;;;5047863;28;20059;-81
2023/04/23 03:21:12;;;;;;;2.15;1.33;;;;;;;;;;5057373;28;20082;-81
2023/04/23 03:23:37;;;;;;;2.25;2.00;;;;;;;;;;5039286;28;20462;-81
2023/04/23 03:26:03;;;;;;;3.30;1.75;;;;;;;;;;5039177;28;20074;-81
2023/04/23 03:28:29;;;;;;;4.53;1.85;;;;;;;;;;5044600;28;20028;-81
2023/04/23 03:30:55;;;;;;;5.00;2.25;;;;;;;;;;5025715;28;20044;-81
2023/04/23 03:33:20;;;;;;;3.85;2.30;;;;;;;;;;5057232;28;20029;-81
2023/04/23 03:35:46;;;;;;;15.27;3.20;;;;;;;;;;5057230;28;20021;-81
2023/04/23 03:38:11;;;;;;;2.97;1.83;;;;;;;;;;5042974;28;20025;-82
2023/04/23 03:40:37;;;;;;;3.42;2.50;;;;;;;;;;5057145;28;20032;-82
2023/04/23 03:43:02;;;;;;;4.30;2.97;;;;;;;;;;5057180;28;20016;-82
2023/04/23 03:45:29;;;;;;;2.88;1.70;;;;;;;;;;5039145;28;20059;-81
2023/04/23 03:47:54;;;;;;;3.80;2.83;;;;;;;;;;5046123;28;20024;-81
2023/04/23 03:50:19;;;;;;;2.58;1.98;;;;;;;;;;5060122;28;20072;-81
2023/04/23 03:52:45;;;;;;;3.47;2.70;;;;;;;;;;5057059;28;20120;-81
2023/04/23 03:55:11;;;;;;;9.82;3.33;;;;;;;;;;5039546;28;20020;-81
2023/04/23 03:57:36;;;;;;;8.68;2.67;;;;;;;;;;5039555;28;20490;-81
2023/04/23 04:00:07;;;;;;;3.15;1.75;;;;;;;;;;5063262;28;20079;-81
2023/04/23 04:02:32;;;;;;;;;;;;;;;;;;5040128;28;20025;-81
2023/04/23 04:04:57;;;;;;;4.03;2.33;;;;;;;;;;5051784;28;20320;-81
2023/04/23 04:07:23;;;;;;;4.03;2.65;;;;;;;;;;5062711;28;20028;-81
2023/04/23 04:09:48;;;;;;;22.15;4.97;;;;;;;;;;5062697;28;20366;-81
2023/04/23 04:12:15;;;;;;;5.75;2.42;;;;;;;;;;5056447;28;20036;-81
2023/04/23 04:14:45;;;;;;;3.17;1.90;;;;;;;;;;5055158;28;20466;-81
2023/04/23 04:17:11;;;;;;;3.20;2.47;;;;;;;;;;5038934;28;20152;-81
2023/04/23 04:19:37;;;;;;;3.38;2.58;;;;;;;;;;5057785;28;20037;-82
2023/04/23 04:22:03;;;;;;;8.38;4.35;;;;;;;;;;5056543;28;20031;-81
2023/04/23 04:24:31;;;;;;;4.80;2.42;;;;;;;;;;5056328;28;20111;-81
2023/04/23 04:26:58;;;;;;;3.70;2.30;;;;;;;;;;5043285;28;20017;-82
2023/04/23 04:29:25;;;;;;;3.10;2.58;;;;;;;;;;5060849;28;20079;-82
2023/04/23 04:31:52;;;;;;;2.28;1.55;;;;;;;;;;5038451;28;20063;-81
2023/04/23 04:34:17;;;;;;;4.45;3.22;;;;;;;;;;5055910;28;20024;-82
2023/04/23 04:36:43;;;;;;;5.68;3.08;;;;;;;;;;5056247;28;20029;-81
2023/04/23 04:39:08;;;;;;;5.50;2.92;;;;;;;;;;5056355;28;20033;-82
2023/04/23 04:41:35;;;;;;;7.68;3.47;;;;;;;;;;5058039;28;20087;-81
2023/04/23 04:44:01;;;;;;;3.28;2.50;;;;;;;;;;5056279;28;20033;-81
2023/04/23 04:46:27;;;;;;;3.67;2.53;;;;;;;;;;5065504;28;20037;-81
2023/04/23 04:48:53;;;;;;;7.53;1.83;;;;;;;;;;5058013;28;20025;-81
2023/04/23 04:51:19;;;;;;;5.00;3.03;;;;;;;;;;5055950;28;20032;-82
2023/04/23 04:53:44;;;;;;;5.60;3.90;;;;;;;;;;5055966;28;20036;-81
2023/04/23 04:56:10;;;;;;;7.43;4.07;;;;;;;;;;5038367;28;20428;-82
2023/04/23 04:58:35;;;;;;;4.82;2.72;;;;;;;;;;5055800;28;20060;-82
2023/04/23 05:01:01;;;;;;;4.45;3.47;;;;;;;;;;5057342;28;20048;-81
2023/04/23 05:03:26;;;;;;;4.53;3.05;;;;;;;;;;5044920;28;20445;-81
2023/04/23 05:05:55;;;;;;;4.20;2.15;;;;;;;;;;5043741;28;20123;-81
2023/04/23 05:08:20;;;;;;;3.20;2.38;;;;;;;;;;5038514;28;20074;-81
2023/04/23 05:10:46;;;;;;;6.18;2.80;;;;;;;;;;5055552;28;20116;-82
2023/04/23 05:13:11;;;;;;;3.95;3.17;;;;;;;;;;5054664;28;20123;-82
2023/04/23 05:15:37;;;;;;;4.55;2.75;;;;;;;;;;5055756;28;20377;-82
2023/04/23 05:18:03;;;;;;;6.63;3.47;;;;;;;;;;5055120;28;20052;-83
2023/04/23 05:20:29;;;;;;;5.22;3.83;;;;;;;;;;5038005;28;20454;-81
2023/04/23 05:22:54;;;;;;;8.48;3.55;;;;;;;;;;5040448;28;20029;-82
2023/04/23 05:25:20;;;;;;;10.88;4.25;;;;;;;;;;5061082;28;20036;-83
2023/04/23 05:27:46;;;;;;;5.25;2.95;;;;;;;;;;5054892;28;20037;-83
2023/04/23 05:30:12;;;;;;;4.35;2.92;;;;;;;;;;5054406;28;20461;-81
2023/04/23 05:32:38;;;;;;;8.93;2.80;;;;;;;;;;5055172;28;20029;-81
2023/04/23 05:35:04;;;;;;;4.20;2.85;;;;;;;;;;5055092;28;20476;-81
2023/04/23 05:37:29;;;;;;;6.05;2.63;;;;;;;;;;5036607;28;20021;-80
2023/04/23 05:39:58;;;;;;;4.97;2.70;;;;;;;;;;5055067;28;20048;-80
2023/04/23 05:42:24;;;;;;;3.60;2.78;;;;;;;;;;5060721;28;20016;-81
2023/04/23 05:44:50;;;;;;;3.33;2.85;;;;;;;;;;5064632;28;20029;-82
2023/04/23 05:47:15;;;;;;;3.75;2.65;;;;;;;;;;5037391;28;20071;-81
2023/04/23 05:49:42;;;;;;;9.38;3.40;;;;;;;;;;5036762;28;20163;-81
2023/04/23 05:52:07;;;;;;;6.47;2.85;;;;;;;;;;5054591;28;20041;-81
2023/04/23 05:54:33;;;;;;;3.63;2.65;;;;;;;;;;5036998;28;20025;-81
2023/04/23 05:56:59;;;;;;;8.27;3.38;;;;;;;;;;5054127;28;20017;-81
2023/04/23 05:59:25;;;;;;;5.15;3.05;;;;;;;;;;5054838;28;20367;-81
2023/04/23 06:01:51;;;;;;;4.43;2.47;;;;;;;;;;5042576;28;20055;-80
2023/04/23 06:04:17;;;;;;;3.55;2.05;;;;;;;;;;5064697;28;20032;-78
2023/04/23 06:06:42;;;;;;;2.55;2.05;;;;;;;;;;5021168;28;20557;-81
2023/04/23 06:09:08;;;;;;;5.70;2.95;;;;;;;;;;5054302;28;20095;-81
2023/04/23 06:11:34;;;;;;;5.80;2.58;;;;;;;;;;5053382;28;20032;-82
2023/04/23 06:14:00;;;;;;;8.93;4.28;;;;;;;;;;5054198;28;20029;-82
2023/04/23 06:16:26;;;;;;;6.53;3.55;;;;;;;;;;5054132;28;20036;-82
2023/04/23 06:18:52;;;;;;;6.70;3.45;;;;;;;;;;5053673;28;20442;-82
2023/04/23 06:21:18;;;;;;;5.32;3.20;;;;;;;;;;5054176;28;20029;-82
2023/04/23 06:23:43;;;;;;;5.57;3.53;;;;;;;;;;5044635;28;20031;-82
2023/04/23 06:26:09;;;;;;;7.97;4.63;;;;;;;;;;5061948;28;20029;-81
2023/04/23 06:28:35;;;;;;;6.68;3.05;;;;;;;;;;5056173;28;20033;-82
2023/04/23 06:31:01;;;;;;;6.93;3.47;;;;;;;;;;5053615;28;20460;-82
2023/04/23 06:33:26;;;;;;;9.27;4.15;;;;;;;;;;5036111;28;20021;-81
2023/04/23 06:35:52;;;;;;;9.68;3.83;;;;;;;;;;5035813;28;20458;-82
2023/04/23 06:38:20;;;;;;;10.85;4.55;;;;;;;;;;5054071;28;20040;-82
2023/04/23 06:40:45;;;;;;;9.60;5.05;;;;;;;;;;5062617;28;20029;-82
2023/04/23 06:43:11;;;;;;;9.75;4.47;;;;;;;;;;5041817;28;20062;-83
2023/04/23 06:45:36;;;;;;;9.88;4.78;;;;;;;;;;5054493;28;20409;-84
2023/04/23 06:48:01;;;;;;;11.07;5.72;;;;;;;;;;5038274;28;20056;-82
2023/04/23 06:50:27;;;;;;;7.53;4.43;;;;;;;;;;5058318;28;20031;-83
2023/04/23 06:52:52;;;;;;;9.93;4.68;;;;;;;;;;5057792;28;20076;-82
2023/04/23 06:55:19;;;;;;;8.32;4.65;;;;;;;;;;5039674;28;20025;-83
2023/04/23 06:57:45;;;;;;;13.27;7.00;;;;;;;;;;5040263;28;20339;-81
2023/04/23 07:00:11;;;;;;;8.73;4.45;;;;;;;;;;5069599;28;20119;-82
2023/04/23 07:02:36;;;;;;;11.35;5.35;;;;;;;;;;5059682;28;20021;-82
2023/04/23 07:05:02;;;;;;;9.20;5.00;;;;;;;;;;5058123;28;20123;-84
2023/04/23 07:07:27;;;;;;;11.80;5.53;;;;;;;;;;5060129;28;20025;-82
2023/04/23 07:09:53;;;;;;;8.85;4.97;;;;;;;;;;5046131;28;20037;-83
2023/04/23 07:12:18;;;;;;;9.73;5.30;;;;;;;;;;5056070;28;20470;-81
2023/04/23 07:14:44;;;;;;;10.27;5.50;;;;;;;;;;5039505;28;20042;-83
2023/04/23 07:17:10;;;;;;;14.38;5.63;;;;;;;;;;5061676;28;20981;-84
2023/04/23 07:19:36;;;;;;;12.35;5.80;;;;;;;;;;5082116;28;20059;-83
2023/04/23 07:22:01;;;;;;;11.07;6.38;;;;;;;;;;5077286;28;20410;-84
2023/04/23 07:24:27;;;;;;;10.38;5.90;;;;;;;;;;5077142;28;20441;-82
2023/04/23 07:26:52;;;;;;;11.35;5.68;;;;;;;;;;5059266;28;20044;-82
2023/04/23 07:29:18;;;;;;;8.55;4.78;;;;;;;;;;5044376;28;20028;-82
2023/04/23 07:31:43;;;;;;;7.97;4.85;;;;;;;;;;5059427;28;20028;-81
2023/04/23 07:34:08;;;;;;;9.57;5.38;;;;;;;;;;5077057;28;20450;-82
2023/04/23 07:36:35;;;;;;;7.10;4.68;;;;;;;;;;5089862;28;20037;-82
2023/04/23 07:39:00;;;;;;;10.85;5.25;;;;;;;;;;5081404;28;20036;-85
2023/04/23 07:41:25;;;;;;;9.30;4.97;;;;;;;;;;5077172;28;20468;-88
2023/04/23 07:43:52;;;;;;;8.68;5.38;;;;;;;;;;5059169;28;20032;-82
2023/04/23 07:46:18;;;;;;;13.68;5.70;;;;;;;;;;5026009;28;20334;-83
2023/04/23 07:48:44;;;;;;;12.77;5.78;;;;;;;;;;5058851;28;20029;-83
2023/04/23 07:51:09;;;;;;;9.68;5.68;;;;;;;;;;5089973;28;20039;-85
2023/04/23 07:53:35;;;;;;;8.70;5.28;;;;;;;;;;5042563;28;20068;-85
2023/04/23 07:56:00;;;;;;;9.38;5.75;;;;;;;;;;5088467;28;20095;-84
2023/04/23 07:58:26;;;;;;;10.93;6.18;;;;;;;;;;5063059;28;20028;-83
2023/04/23 08:00:51;;;;;;;14.88;5.47;;;;;;;;;;5076217;28;20082;-84
2023/04/23 08:03:16;;;;;;;11.45;5.90;;;;;;;;;;5058521;28;20440;-84
2023/04/23 08:05:42;;;;;;;13.50;6.15;;;;;;;;;;5076470;28;20089;-83
2023/04/23 08:08:07;;;;;;;9.50;5.72;;;;;;;;;;5058526;28;20430;-84
2023/04/23 08:10:34;;;;;;;10.27;5.47;;;;;;;;;;5062851;28;20032;-83
2023/04/23 08:12:59;;;;;;;7.70;5.13;;;;;;;;;;5061434;28;20041;-82
2023/04/23 08:15:25;;;;;;;10.38;5.60;;;;;;;;;;5089393;28;20016;-83
2023/04/23 08:17:51;;;;;;;10.75;5.95;;;;;;;;;;5077386;28;20527;-82
2023/04/23 08:20:16;;;;;;;9.70;5.05;;;;;;;;;;5041591;28;20040;-84
2023/04/23 08:22:42;;;;;;;9.60;5.38;;;;;;;;;;5076465;28;20043;-84
2023/04/23 08:25:08;;;;;;;8.48;4.20;;;;;;;;;;5058104;28;20033;-84
2023/04/23 08:27:33;;;;;;;10.43;5.28;;;;;;;;;;5076717;28;20029;-84
2023/04/23 08:29:59;;;;;;;8.82;4.72;;;;;;;;;;5076023;28;20412;-83
2023/04/23 08:32:25;;;;;;;14.55;5.60;;;;;;;;;;5063011;28;20142;-84
2023/04/23 08:34:50;;;;;;;5.63;3.80;;;;;;;;;;5065606;28;20029;-84
2023/04/23 08:37:16;;;;;;;8.30;4.28;;;;;;;;;;5058011;28;20040;-84
2023/04/23 08:39:41;;;;;;;5.78;3.67;;;;;;;;;;5075864;28;20064;-82
2023/04/23 08:42:14;;;;;;;5.75;3.63;;;;;;;;;;5075713;28;20121;-83
2023/04/23 08:44:41;;;;;;;7.13;3.95;;;;;;;;;;5075606;28;20021;-83
2023/04/23 08:47:07;;;;;;;6.25;4.25;;;;;;;;;;5075950;28;20078;-82
2023/04/23 08:49:33;;;;;;;9.65;4.82;;;;;;;;;;5057436;28;20408;-83
2023/04/23 08:52:00;;;;;;;7.13;4.82;;;;;;;;;;5082854;28;20028;-85
2023/04/23 08:54:26;;;;;;;7.07;3.60;;;;;;;;;;5064019;28;20036;-84
2023/04/23 08:56:56;;;;;;;6.57;3.88;;;;;;;;;;5057979;28;20036;-84
2023/04/23 08:59:21;;;;;;;5.10;3.55;;;;;;;;;;5075739;28;20059;-83
2023/04/23 09:01:47;;;;;;;5.65;3.55;;;;;;;;;;5041309;28;20052;-84
2023/04/23 09:04:15;;;;;;;6.25;3.95;;;;;;;;;;5040206;28;20024;-83
2023/04/23 09:06:41;;;;;;;7.30;3.83;;;;;;;;;;5057867;28;20052;-83
2023/04/23 09:09:07;;;;;;;5.20;3.25;;;;;;;;;;5057601;28;20406;-82
2023/04/23 09:11:32;;;;;;;4.38;3.20;;;;;;;;;;5046733;28;20028;-83
2023/04/23 09:13:57;;;;;;;5.72;3.40;;;;;;;;;;5058329;28;20044;-83
2023/04/23 09:16:23;;;;;;;5.25;3.20;;;;;;;;;;5079520;28;20068;-84
2023/04/23 09:18:50;;;;;;;8.82;3.55;;;;;;;;;;5056929;28;20040;-84
2023/04/23 09:21:15;;;;;;;5.00;3.15;;;;;;;;;;5057341;28;20514;-84
2023/04/23 09:23:41;;;;;;;5.43;3.00;;;;;;;;;;5075127;28;20032;-83
2023/04/23 09:26:06;;;;;;;7.45;3.10;;;;;;;;;;5040379;28;20052;-83
2023/04/23 09:28:35;;;;;;;5.50;3.30;;;;;;;;;;5056673;28;20056;-84
2023/04/23 09:31:01;;;;;;;4.13;3.22;;;;;;;;;;5083389;28;20016;-84
2023/04/23 09:33:27;;;;;;;5.05;3.03;;;;;;;;;;5079323;28;20035;-82
2023/04/23 09:35:52;;;;;;;5.38;3.05;;;;;;;;;;5069612;28;20029;-84
2023/04/23 09:38:21;;;;;;;5.90;3.08;;;;;;;;;;5074632;28;20343;-83
2023/04/23 09:40:46;;;;;;;4.22;3.05;;;;;;;;;;5040288;28;20442;-82
2023/04/23 09:43:12;;;;;;;5.95;3.08;;;;;;;;;;5074496;28;20032;-82
2023/04/23 09:45:47;;;;;;;4.93;3.10;;;;;;;;;;5074926;28;20036;-83
2023/04/23 09:48:12;;;;;;;4.57;2.78;;;;;;;;;;5075119;28;20097;-82
2023/04/23 09:50:39;;;;;;;3.80;2.53;;;;;;;;;;5082754;28;20134;-83
2023/04/23 09:53:05;;;;;;;9.13;2.80;;;;;;;;;;5040237;28;20024;-84
2023/04/23 09:55:34;;;;;;;4.00;2.58;;;;;;;;;;5039767;28;20033;-83
2023/04/23 09:58:02;;;;;;;4.22;2.80;;;;;;;;;;5079762;28;20036;-84
2023/04/23 10:00:31;;;;;;;3.22;2.22;;;;;;;;;;5040242;28;20115;-83
2023/04/23 10:02:57;;;;;;;3.42;2.20;;;;;;;;;;5039306;28;20064;-83
2023/04/23 10:05:23;;;;;;;5.95;2.88;;;;;;;;;;5039696;28;20560;-83
2023/04/23 10:07:48;;;;;;;3.95;2.90;;;;;;;;;;5080546;28;20066;-83
2023/04/23 10:10:18;;;;;;;4.30;2.90;;;;;;;;;;5080554;28;20032;-84
2023/04/23 10:12:43;;;;;;;4.15;2.67;;;;;;;;;;5056264;28;20024;-85
2023/04/23 10:15:09;;;;;;;5.57;3.10;;;;;;;;;;5074195;28;20119;-84
2023/04/23 10:17:35;;;;;;;7.80;3.05;;;;;;;;;;5077884;28;20114;-83
2023/04/23 10:20:01;;;;;;;4.85;2.80;;;;;;;;;;5059015;28;20036;-85
2023/04/23 10:22:27;;;;;;;3.97;2.58;;;;;;;;;;5040476;28;20039;-83
2023/04/23 10:24:57;;;;;;;5.95;3.10;;;;;;;;;;5041939;28;20043;-83
2023/04/23 10:27:27;;;;;;;6.07;2.28;;;;;;;;;;5067268;28;20020;-82
2023/04/23 10:29:52;;;;;;;4.00;2.45;;;;;;;;;;5076898;28;20025;-83
2023/04/23 10:32:18;;;;;;;2.90;2.25;;;;;;;;;;5074452;28;20042;-84
2023/04/23 10:34:43;;;;;;;6.50;2.78;;;;;;;;;;5050629;28;20033;-83
2023/04/23 10:37:10;;;;;;;3.17;2.22;;;;;;;;;;5062555;28;20028;-84
2023/04/23 10:39:35;;;;;;;4.22;2.45;;;;;;;;;;5060123;28;20054;-83
2023/04/23 10:42:01;;;;;;;2.53;2.15;;;;;;;;;;5076145;28;20044;-83
2023/04/23 10:44:35;;;;;;;3.88;2.45;;;;;;;;;;5073867;28;20040;-81
2023/04/23 10:47:01;;;;;;;23.77;9.25;;;;;;;;;;5088386;28;20024;-82
2023/04/23 10:49:30;;;;;;;10.02;4.45;;;;;;;;;;5056486;28;20024;-83
2023/04/23 10:52:02;;;;;;;5.88;3.42;;;;;;;;;;5094590;28;20040;-83
2023/04/23 10:54:30;;;;;;;8.93;3.53;;;;;;;;;;5066143;28;20134;-82
2023/04/23 10:57:03;;;;;;;4.40;2.65;;;;;;;;;;5074633;28;20036;-83
2023/04/23 10:59:30;;;;;;;3.20;2.13;;;;;;;;;;5064974;28;20025;-82
2023/04/23 11:02:04;;;;;;;5.45;2.25;;;;;;;;;;5074492;28;20496;-84
2023/04/23 11:04:30;;;;;;;4.43;2.58;;;;;;;;;;5057355;28;20123;-82
2023/04/23 11:06:57;;;;;;;3.47;1.80;;;;;;;;;;5081270;28;20088;-83
2023/04/23 11:09:41;;;;;;;2.60;1.65;;;;;;;;;;5073618;28;20033;-84
2023/04/23 11:12:30;;;;;;;2.05;1.70;;;;;;;;;;5073273;28;20036;-83
2023/04/23 11:14:58;;;;;;;4.15;2.72;;;;;;;;;;5073283;28;20024;-83
2023/04/23 11:17:29;;;;;;;2.08;1.52;;;;;;;;;;5055797;28;20060;-82
2023/04/23 11:20:12;;;;;;;3.25;1.88;;;;;;;;;;5073727;28;20119;-82
2023/04/23 11:22:44;;;;;;;4.13;2.00;;;;;;;;;;5042164;28;20068;-83
2023/04/23 11:25:11;;;;;;;3.17;1.58;;;;;;;;;;5081381;28;20043;-82
2023/04/23 11:27:42;;;;;;;4.10;2.05;;;;;;;;;;5057579;28;20048;-84
2023/04/23 11:30:16;;;;;;;4.88;2.10;;;;;;;;;;5073318;28;20032;-83
2023/04/23 11:32:47;;;;;;;2.70;1.52;;;;;;;;;;5039319;28;20035;-83
2023/04/23 11:35:13;;;;;;;1.92;1.52;;;;;;;;;;5075540;28;20120;-83
2023/04/23 11:37:39;;;;;;;2.97;1.65;;;;;;;;;;5059074;28;20089;-83
2023/04/23 11:40:09;;;;;;;3.58;2.03;;;;;;;;;;5077458;28;20123;-83
2023/04/23 11:43:03;;;;;;;2.92;1.88;;;;;;;;;;5065320;28;20044;-82
2023/04/23 11:45:28;;;;;;;1.75;1.35;;;;;;;;;;5076369;28;20473;-83
2023/04/23 11:47:55;;;;;;;3.70;2.03;;;;;;;;;;5076695;28;20024;-82
2023/04/23 11:50:29;;;;;;;2.42;1.60;;;;;;;;;;5076536;28;20047;-83
2023/04/23 11:52:55;;;;;;;1.67;1.10;;;;;;;;;;5076992;28;20025;-83
2023/04/23 11:55:21;;;;;;;3.38;1.90;;;;;;;;;;5059112;28;20401;-83
2023/04/23 11:57:47;;;;;;;2.97;1.55;;;;;;;;;;5042210;28;20077;-84
2023/04/23 12:00:23;;;;;;;8.73;1.30;;;;;;;;;;5079676;28;20017;-82
2023/04/23 12:02:49;;;;;;;2.92;1.60;;;;;;;;;;5089966;28;20085;-81
2023/04/23 12:05:15;;;;;;;1.90;1.23;;;;;;;;;;5078258;28;20036;-83
2023/04/23 12:07:41;;;;;;;3.47;1.55;;;;;;;;;;5058717;28;20041;-83
2023/04/23 12:10:06;;;;;;;2.38;1.63;;;;;;;;;;5076397;28;20047;-84
2023/04/23 12:12:33;;;;;;;2.08;1.33;;;;;;;;;;5069772;28;20457;-82
2023/04/23 12:15:13;;;;;;;2.40;1.50;;;;;;;;;;5058089;28;20105;-82
2023/04/23 12:17:39;;;;;;;3.22;1.48;;;;;;;;;;5076288;28;20064;-83
2023/04/23 12:20:07;;;;;;;1.70;1.05;;;;;;;;;;5042066;28;20031;-82
2023/04/23 12:22:33;;;;;;;3.15;1.52;;;;;;;;;;5086177;28;20063;-82
2023/04/23 12:25:01;;;;;;;2.25;1.38;;;;;;;;;;5084854;28;20024;-83
2023/04/23 12:27:27;;;;;;;1.40;1.30;;;;;;;;;;5076657;28;20024;-82
2023/04/23 12:29:59;;;;;;;4.30;1.52;;;;;;;;;;5076811;28;20028;-84
2023/04/23 12:32:25;;;;;;;6.68;1.73;;;;;;;;;;5058670;28;20435;-83
2023/04/23 12:34:52;;;;;;;2.55;1.48;;;;;;;;;;5076153;28;20036;-84
2023/04/23 12:37:17;;;;;;;1.48;1.38;;;;;;;;;;5076171;28;20052;-82
2023/04/23 12:39:43;;;;;;;2.60;1.30;;;;;;;;;;5061452;28;20032;-83
2023/04/23 12:42:09;;;;;;;3.80;1.80;;;;;;;;;;5082594;28;20031;-83
2023/04/23 12:44:35;;;;;;;2.67;1.20;;;;;;;;;;5076266;28;20039;-82
2023/04/23 12:47:07;;;;;;;4.97;1.33;;;;;;;;;;5057002;28;20028;-83
2023/04/23 12:49:34;;;;;;;1.55;1.13;;;;;;;;;;5058020;28;20093;-83
2023/04/23 12:52:00;;;;;;;6.10;1.20;;;;;;;;;;5058130;28;20028;-83
2023/04/23 12:54:27;;;;;;;1.90;1.10;;;;;;;;;;5057612;28;20029;-83
2023/04/23 12:56:52;;;;;;;2.22;1.30;;;;;;;;;;5057653;28;20062;-83
2023/04/23 12:59:18;;;;;;;2.80;1.52;;;;;;;;;;5082895;28;20028;-84
2023/04/23 13:01:44;;;;;;;1.52;1.40;;;;;;;;;;5058940;28;20085;-83
2023/04/23 13:04:09;;;;;;;2.53;1.52;;;;;;;;;;5057486;28;20024;-83
2023/04/23 13:06:34;;;;;;;1.90;1.35;;;;;;;;;;5058914;28;20043;-84
2023/04/23 13:09:04;;;;;;;1.63;1.05;;;;;;;;;;5075684;28;20051;-83
2023/04/23 13:11:29;;;;;;;2.63;1.55;;;;;;;;;;5057860;28;20062;-82
2023/04/23 13:13:55;;;;;;;3.03;1.50;;;;;;;;;;5048711;28;20128;-82
2023/04/23 13:16:21;;;;;;;2.63;1.33;;;;;;;;;;5054773;28;20361;-83
2023/04/23 13:18:47;;;;;;;1.35;1.23;;;;;;;;;;5064756;28;20057;-82
2023/04/23 13:21:12;;;;;;;1.20;1.10;;;;;;;;;;5055293;28;20462;-84
2023/04/23 13:23:38;;;;;;;1.25;1.15;;;;;;;;;;5054799;28;20029;-83
2023/04/23 13:26:05;;;;;;;1.92;1.35;;;;;;;;;;5037244;28;20029;-84
2023/04/23 13:28:31;;;;;;;1.60;1.17;;;;;;;;;;5038389;28;20075;-82
2023/04/23 13:30:57;;;;;;;3.55;1.58;;;;;;;;;;5037164;28;20068;-82
2023/04/23 13:33:23;;;;;;;1.92;1.33;;;;;;;;;;5054783;28;20033;-83
2023/04/23 13:35:48;;;;;;;1.73;1.20;;;;;;;;;;5054983;28;20447;-83
2023/04/23 13:38:13;;;;;;;2.13;1.27;;;;;;;;;;5064703;28;20556;-83
2023/04/23 13:40:39;;;;;;;3.00;1.60;;;;;;;;;;5037456;28;20690;-84
2023/04/23 13:43:04;;;;;;;1.92;1.13;;;;;;;;;;5036852;28;20043;-82
2023/04/23 13:45:30;;;;;;;3.47;1.77;;;;;;;;;;5054882;28;20044;-83
2023/04/23 13:47:55;;;;;;;2.35;1.20;;;;;;;;;;5039251;28;20059;-83
2023/04/23 13:50:21;;;;;;;4.25;1.50;;;;;;;;;;5020234;28;20477;-83
2023/04/23 13:52:46;;;;;;;2.17;1.80;;;;;;;;;;5037030;28;20351;-84
2023/04/23 13:55:12;;;;;;;3.33;1.30;;;;;;;;;;5056967;28;20083;-84
2023/04/23 13:57:37;;;;;;;1.85;1.63;;;;;;;;;;5062577;28;20021;-84
2023/04/23 14:00:04;;;;;;;2.75;1.83;;;;;;;;;;5036744;28;20060;-84
2023/04/23 14:02:29;;;;;;;0.82;0.82;;;;;;;;;;5055187;28;20036;-84
2023/04/23 14:04:56;;;;;;;1.20;0.93;;;;;;;;;;5054712;28;20059;-84
2023/04/23 14:07:21;;;;;;;1.23;1.13;;;;;;;;;;5064021;28;20082;-84
2023/04/23 14:09:51;;;;;;;1.55;0.85;;;;;;;;;;5051673;28;20048;-83
2023/04/23 14:12:17;;;;;;;1.45;1.20;;;;;;;;;;5054134;28;20068;-83
2023/04/23 14:14:43;;;;;;;2.20;1.02;;;;;;;;;;5057521;28;20102;-84
2023/04/23 14:17:08;;;;;;;1.38;1.23;;;;;;;;;;5055955;28;20489;-83
2023/04/23 14:19:36;;;;;;;1.58;1.15;;;;;;;;;;5036977;28;20119;-83
2023/04/23 14:22:02;;;;;;;1.80;0.93;;;;;;;;;;5036069;28;20437;-82
2023/04/23 14:24:31;;;;;;;1.02;1.00;;;;;;;;;;5053981;28;20033;-84
2023/04/23 14:26:57;;;;;;;1.17;1.02;;;;;;;;;;5055940;28;20068;-84
2023/04/23 14:29:47;;;;;;;1.20;1.10;;;;;;;;;;5038613;28;20045;-83
2023/04/23 14:32:13;;;;;;;;;;;;;;;;;;5054422;28;20036;-84
2023/04/23 14:34:38;;;;;;;1.23;1.00;;;;;;;;;;5060575;28;19912;-83
2023/04/23 14:37:04;;;;;;;2.38;1.35;;;;;;;;;;5056606;28;20082;-84
2023/04/23 14:39:29;;;;;;;0.98;0.85;;;;;;;;;;5019657;28;20063;-83